Decoded Metar for LFOE (EVREUX in FRANCE) (IATA:N/A) | Meteo·Mobile Aviation Weather
aviador You're here:

LFOE Decoded Metar

EVREUX in FRANCE
Report Time2019-04-20 10:00:00
UTC Time2019-04-20 10:18:20
Flight Rules vfr VFR
Wind040° at 06 kt
W.Decomp.*RWY 04: 6.0 kt HW 0.1 kt RCW
Visibility9000 m
Phenomena:N/A
Clouds:N/A
Expected CloudBase > 4,800 ft AGL from Temp-Dew spread
CeilingNone
Temp21°C (ISA +7)
Dew Point09°C (46% RH)
AAT18.6°C
QNH1027 hPa
Density Alt978 ft
Elevation479 ft
Report Wrong Elevation
Raw Report
METAR LFOE 201000Z AUTO 04006KT 350V090 9000 NSC 21/09 Q1027 NOSIG=

Extra information for LFOE:More info

Metar Taf Metar & Taf Last 4 Metars F.Rules Stats Wind Profile Meteogram Temp Stats Airport Information Weather charts Add Link Nearby VenuesMetar ALERT Operation Metar Decoded Social comments